createdAt,value
2023-02-06T00:03:30.704Z,1.54
2023-02-06T00:08:35.442Z,1.52
2023-02-06T00:13:38.687Z,1.63
2023-02-06T00:18:41.484Z,1.69
2023-02-06T00:23:45.640Z,1.86
2023-02-06T00:28:48.725Z,1.90
2023-02-06T00:33:51.511Z,2.01
2023-02-06T00:38:56.334Z,2.03
2023-02-06T00:43:59.107Z,2.06
2023-02-06T00:49:02.204Z,2.13
2023-02-06T00:54:06.617Z,2.15
2023-02-06T00:59:09.972Z,2.14
2023-02-06T01:04:15.370Z,2.16
2023-02-06T01:09:19.585Z,2.05
2023-02-06T01:14:22.643Z,1.93
2023-02-06T01:19:25.553Z,1.76
2023-02-06T01:24:29.859Z,1.56
2023-02-06T01:29:32.720Z,1.43
2023-02-06T01:34:35.582Z,1.33
2023-02-06T01:39:39.738Z,1.29
2023-02-06T01:44:42.934Z,1.16
2023-02-06T01:49:50.121Z,1.09
2023-02-06T01:55:00.310Z,1.06
2023-02-06T02:00:08.244Z,0.92
2023-02-06T02:05:18.897Z,0.89
2023-02-06T02:10:23.258Z,0.92
2023-02-06T02:15:35.978Z,0.94
2023-02-06T02:21:05.036Z,0.82
2023-02-06T02:26:54.815Z,0.83
2023-02-06T02:32:21.867Z,0.78
2023-02-06T02:37:36.007Z,0.73
2023-02-06T02:42:48.016Z,0.54
2023-02-06T02:47:55.520Z,0.48
2023-02-06T02:53:02.067Z,0.43
2023-02-06T02:58:07.958Z,0.36
2023-02-06T03:03:14.305Z,0.37
2023-02-06T03:08:27.201Z,0.36
2023-02-06T03:13:35.760Z,0.34
2023-02-06T03:18:44.119Z,0.35
2023-02-06T03:23:51.242Z,0.31
2023-02-06T03:28:57.024Z,0.30
2023-02-06T03:34:07.004Z,0.11
2023-02-06T03:39:11.240Z,-0.18
2023-02-06T03:44:20.825Z,-0.47
2023-02-06T03:49:27.885Z,-0.20
2023-02-06T03:54:33.530Z,-0.22
2023-02-06T03:59:36.378Z,-0.31
2023-02-06T04:04:42.035Z,-0.18
2023-02-06T04:09:46.316Z,-0.08
2023-02-06T04:14:49.164Z,-0.29
2023-02-06T04:19:51.995Z,-0.53
2023-02-06T04:24:56.174Z,-0.61
2023-02-06T04:29:59.019Z,-0.56
2023-02-06T04:35:01.890Z,-0.73
2023-02-06T04:40:07.024Z,-0.91
2023-02-06T04:45:10.741Z,-0.87
2023-02-06T04:50:13.521Z,-0.79
2023-02-06T04:55:17.676Z,-0.64
2023-02-06T05:00:20.588Z,-1.03
2023-02-06T05:05:23.482Z,-0.79
2023-02-06T05:10:27.753Z,-0.70
2023-02-06T05:15:30.516Z,-0.70
2023-02-06T05:20:33.497Z,-0.46
2023-02-06T05:25:39.484Z,-0.60
2023-02-06T05:30:43.550Z,-0.79
2023-02-06T05:35:46.371Z,-1.18
2023-02-06T05:40:53.053Z,-0.99
2023-02-06T05:45:56.018Z,-0.71
2023-02-06T05:50:59.239Z,-0.20
2023-02-06T05:56:03.369Z,-0.18
2023-02-06T06:01:06.201Z,0.07
2023-02-06T06:06:09.534Z,0.18
2023-02-06T06:11:13.647Z,-0.14
2023-02-06T06:16:16.483Z,-0.24
2023-02-06T06:21:19.332Z,-0.37
2023-02-06T06:26:23.445Z,-0.00
2023-02-06T06:31:26.332Z,0.00
2023-02-06T06:36:29.338Z,-0.00
2023-02-06T06:41:33.456Z,-0.23
2023-02-06T06:46:36.248Z,-0.41
2023-02-06T06:51:39.007Z,-0.08
2023-02-06T06:56:43.153Z,0.06
2023-02-06T07:01:45.953Z,0.08
2023-02-06T07:06:48.884Z,0.02
2023-02-06T07:11:53.011Z,0.17
2023-02-06T07:16:56.240Z,0.34
2023-02-06T07:21:59.059Z,0.36
2023-02-06T07:27:03.189Z,0.32
2023-02-06T07:32:06.858Z,0.30
2023-02-06T07:37:09.669Z,0.34
2023-02-06T07:42:13.805Z,0.49
2023-02-06T07:47:28.438Z,0.54
2023-02-06T07:52:31.265Z,0.49
2023-02-06T07:57:35.408Z,0.45
2023-02-06T08:02:38.367Z,0.29
2023-02-06T08:07:41.203Z,0.33
2023-02-06T08:12:45.661Z,0.61
2023-02-06T08:17:48.449Z,0.58
2023-02-06T08:22:51.262Z,0.44
2023-02-06T08:27:56.640Z,0.54
2023-02-06T08:32:59.585Z,0.31
2023-02-06T08:38:02.371Z,0.53
2023-02-06T08:43:06.554Z,1.10
2023-02-06T08:48:09.304Z,1.24
2023-02-06T08:53:12.487Z,1.31
2023-02-06T08:58:16.711Z,1.24
2023-02-06T09:03:20.407Z,1.18
2023-02-06T09:08:23.303Z,1.47
2023-02-06T09:13:27.493Z,1.43
2023-02-06T09:18:30.354Z,1.57
2023-02-06T09:23:33.195Z,1.84
2023-02-06T09:28:37.414Z,1.77
2023-02-06T09:33:41.295Z,1.80
2023-02-06T09:38:45.952Z,1.61
2023-02-06T09:43:53.977Z,2.11
2023-02-06T09:48:58.983Z,1.89
2023-02-06T09:54:09.807Z,2.14
2023-02-06T09:59:18.975Z,2.07
2023-02-06T10:04:45.237Z,1.85
2023-02-06T10:09:53.358Z,1.96
2023-02-06T10:15:03.606Z,2.26
2023-02-06T10:20:14.310Z,1.94
2023-02-06T10:25:25.468Z,2.43
2023-02-06T10:30:40.820Z,2.71
2023-02-06T10:35:53.760Z,2.64
2023-02-06T10:41:05.475Z,2.08
2023-02-06T10:46:28.348Z,2.63
2023-02-06T10:51:33.676Z,2.88
2023-02-06T10:56:41.335Z,3.09
2023-02-06T11:01:47.613Z,3.27
2023-02-06T11:06:52.062Z,3.23
2023-02-06T11:11:57.591Z,3.47
2023-02-06T11:17:02.204Z,3.50
2023-02-06T11:22:13.444Z,3.21
2023-02-06T11:27:20.521Z,3.69
2023-02-06T11:32:35.939Z,3.68
2023-02-06T11:37:40.842Z,3.87
2023-02-06T11:42:44.236Z,3.98
2023-02-06T11:47:48.430Z,4.09
2023-02-06T11:52:55.944Z,4.10
2023-02-06T11:58:05.417Z,4.08
2023-02-06T12:03:28.471Z,4.23
2023-02-06T12:08:41.544Z,4.44
2023-02-06T12:13:49.736Z,4.25
2023-02-06T12:18:58.195Z,4.19
2023-02-06T12:24:03.533Z,4.23
2023-02-06T12:29:11.009Z,4.40
2023-02-06T12:34:19.737Z,4.47
2023-02-06T12:39:24.039Z,4.36
2023-02-06T12:44:34.193Z,4.48
2023-02-06T12:49:46.082Z,4.55
2023-02-06T12:54:53.759Z,4.77
2023-02-06T13:00:13.791Z,5.23
2023-02-06T13:05:23.380Z,5.28
2023-02-06T13:10:27.482Z,5.29
2023-02-06T13:15:36.154Z,5.05
2023-02-06T13:21:16.716Z,5.03
2023-02-06T13:26:19.832Z,5.02
2023-02-06T13:31:31.108Z,5.12
2023-02-06T13:36:51.319Z,5.66
2023-02-06T13:41:54.614Z,5.66
2023-02-06T13:47:23.380Z,5.47
2023-02-06T13:52:35.626Z,5.19
2023-02-06T13:58:08.306Z,4.83
2023-02-06T14:03:17.215Z,4.64
2023-02-06T14:08:27.941Z,4.60
2023-02-06T14:14:04.050Z,4.51
2023-02-06T14:19:18.363Z,4.43
2023-02-06T14:24:39.115Z,4.50
2023-02-06T14:29:50.286Z,4.89
2023-02-06T14:35:07.874Z,5.57
2023-02-06T14:40:20.615Z,5.94
2023-02-06T14:45:33.846Z,6.04
2023-02-06T14:50:42.134Z,5.36
2023-02-06T14:55:47.080Z,4.70
2023-02-06T15:00:49.936Z,4.25
2023-02-06T15:06:01.948Z,4.02
2023-02-06T15:11:15.940Z,3.85
2023-02-06T15:16:18.889Z,3.82
2023-02-06T15:21:22.143Z,3.77
2023-02-06T15:26:35.526Z,3.64
2023-02-06T15:31:38.624Z,3.51
2023-02-06T15:36:41.447Z,3.61
2023-02-06T15:41:53.041Z,4.01
2023-02-06T15:46:57.639Z,3.88
2023-02-06T15:52:01.908Z,3.59
2023-02-06T15:57:09.415Z,3.26
2023-02-06T16:02:22.608Z,3.01
2023-02-06T16:07:27.519Z,2.73
2023-02-06T16:12:34.824Z,2.70
2023-02-06T16:17:41.264Z,2.66
2023-02-06T16:22:45.184Z,2.58
2023-02-06T16:27:51.172Z,2.51
2023-02-06T16:32:55.436Z,2.46
2023-02-06T16:37:58.343Z,2.36
2023-02-06T16:43:02.593Z,2.29
2023-02-06T16:48:10.988Z,2.21
2023-02-06T16:53:20.060Z,2.07
2023-02-06T16:58:28.430Z,1.94
2023-02-06T17:03:32.530Z,1.89
2023-02-06T17:08:39.731Z,1.82
2023-02-06T17:13:44.042Z,1.77
2023-02-06T17:18:47.471Z,1.68
2023-02-06T17:23:51.748Z,1.48
2023-02-06T17:28:55.961Z,1.17
2023-02-06T17:33:59.277Z,1.10
2023-02-06T17:39:02.391Z,1.20
2023-02-06T17:44:06.776Z,1.28
2023-02-06T17:49:09.865Z,1.30
2023-02-06T17:54:13.682Z,1.36
2023-02-06T17:59:17.814Z,1.32
2023-02-06T18:04:21.343Z,1.22
2023-02-06T18:09:24.183Z,1.09
2023-02-06T18:14:28.360Z,0.98
2023-02-06T18:19:31.624Z,0.87
2023-02-06T18:24:34.501Z,0.82
2023-02-06T18:29:49.317Z,0.79
2023-02-06T18:34:53.102Z,0.70
2023-02-06T18:39:56.268Z,0.71
2023-02-06T18:45:02.125Z,0.65
2023-02-06T18:50:07.229Z,0.60
2023-02-06T18:55:10.312Z,0.52
2023-02-06T19:00:16.927Z,0.39
2023-02-06T19:05:20.682Z,0.38
2023-02-06T19:10:25.787Z,0.35
2023-02-06T19:15:34.151Z,0.21
2023-02-06T19:20:37.161Z,0.23
2023-02-06T19:25:41.801Z,0.22
2023-02-06T19:30:46.013Z,0.16
2023-02-06T19:35:48.866Z,0.13
2023-02-06T19:40:53.622Z,0.05
2023-02-06T19:45:57.849Z,0.01
2023-02-06T19:51:04.381Z,-0.09
2023-02-06T19:56:08.129Z,-0.09
2023-02-06T20:01:13.951Z,-0.10
2023-02-06T20:06:17.326Z,-0.19
2023-02-06T20:11:22.323Z,-0.27
2023-02-06T20:16:29.058Z,-0.28
2023-02-06T20:21:35.035Z,-0.33
2023-02-06T20:26:39.968Z,-0.36
2023-02-06T20:31:44.247Z,-0.45
2023-02-06T20:36:47.620Z,-0.79
2023-02-06T20:41:50.814Z,-0.93
2023-02-06T20:46:55.053Z,-0.87
2023-02-06T20:51:57.904Z,-0.83
2023-02-06T20:57:01.183Z,-0.85
2023-02-06T21:02:05.332Z,-0.84
2023-02-06T21:07:08.266Z,-0.78
2023-02-06T21:12:11.076Z,-0.82
2023-02-06T21:17:15.210Z,-0.90
2023-02-06T21:22:17.984Z,-0.85
2023-02-06T21:27:20.762Z,-0.87
2023-02-06T21:32:25.628Z,-0.92
2023-02-06T21:37:28.620Z,-1.03
2023-02-06T21:42:31.481Z,-1.34
2023-02-06T21:47:36.880Z,-1.28
2023-02-06T21:52:39.697Z,-1.22
2023-02-06T21:57:42.460Z,-1.22
2023-02-06T22:02:46.688Z,-1.12
2023-02-06T22:07:49.513Z,-1.00
2023-02-06T22:12:52.392Z,-1.01
2023-02-06T22:17:56.572Z,-1.12
2023-02-06T22:22:59.369Z,-1.20
2023-02-06T22:28:02.308Z,-1.27
2023-02-06T22:33:06.502Z,-1.26
2023-02-06T22:43:40.604Z,-1.27
2023-02-06T22:48:44.679Z,-1.31
2023-02-06T22:53:47.423Z,-1.26
2023-02-06T22:58:51.098Z,-1.34
2023-02-06T23:03:57.519Z,-1.31
2023-02-06T23:09:01.585Z,-1.35
2023-02-06T23:14:05.932Z,-1.38
2023-02-06T23:19:11.414Z,-1.44
2023-02-06T23:24:14.776Z,-1.58
2023-02-06T23:29:19.129Z,-1.59
2023-02-06T23:34:24.469Z,-1.70
2023-02-06T23:39:27.510Z,-1.82
2023-02-06T23:44:30.253Z,-1.72
2023-02-06T23:49:34.431Z,-1.73
2023-02-06T23:54:37.247Z,-1.88
2023-02-06T23:59:40.038Z,-1.77
